createdAt,value
2017-08-06T00:02:14.147Z,14.30
2017-08-06T00:04:41.755Z,14.20
2017-08-06T00:07:09.334Z,14.10
2017-08-06T00:09:37.233Z,14.10
2017-08-06T00:12:04.812Z,14.00
2017-08-06T00:14:33.138Z,13.90
2017-08-06T00:17:00.785Z,13.90
2017-08-06T00:19:28.349Z,14.00
2017-08-06T00:21:55.954Z,14.00
2017-08-06T00:24:23.555Z,14.00
2017-08-06T00:26:51.458Z,14.00
2017-08-06T00:29:19.061Z,13.90
2017-08-06T00:31:46.653Z,13.90
2017-08-06T00:34:14.260Z,13.90
2017-08-06T00:36:41.840Z,13.90
2017-08-06T00:39:09.534Z,13.90
2017-08-06T00:41:37.136Z,13.80
2017-08-06T00:44:05.094Z,13.80
2017-08-06T00:46:32.688Z,13.80
2017-08-06T00:49:01.015Z,13.60
2017-08-06T00:51:28.600Z,13.60
2017-08-06T00:53:56.187Z,13.50
2017-08-06T00:56:24.831Z,13.40
2017-08-06T00:58:52.387Z,13.40
2017-08-06T01:01:20.023Z,13.40
2017-08-06T01:03:47.607Z,13.30
2017-08-06T01:06:15.183Z,13.30
2017-08-06T01:08:42.798Z,13.30
2017-08-06T01:11:10.464Z,13.20
2017-08-06T01:13:38.471Z,13.20
2017-08-06T01:16:06.059Z,13.10
2017-08-06T01:18:34.406Z,13.10
2017-08-06T01:21:02.010Z,13.00
2017-08-06T01:23:29.599Z,13.00
2017-08-06T01:25:57.194Z,13.00
2017-08-06T01:28:24.788Z,12.90
2017-08-06T01:30:52.649Z,12.90
2017-08-06T01:33:21.057Z,12.70
2017-08-06T01:35:48.669Z,12.60
2017-08-06T01:38:16.263Z,12.60
2017-08-06T01:40:43.821Z,12.50
2017-08-06T01:43:11.408Z,12.50
2017-08-06T01:45:39.035Z,12.60
2017-08-06T01:48:06.951Z,12.60
2017-08-06T01:50:34.567Z,12.60
2017-08-06T01:53:02.245Z,12.50
2017-08-06T01:55:29.847Z,12.50
2017-08-06T01:57:57.429Z,12.50
2017-08-06T02:00:25.783Z,12.40
2017-08-06T02:02:53.380Z,12.40
2017-08-06T02:05:20.969Z,12.40
2017-08-06T02:07:48.566Z,12.40
2017-08-06T02:10:16.177Z,12.40
2017-08-06T02:12:44.100Z,12.50
2017-08-06T02:15:11.680Z,12.40
2017-08-06T02:17:40.010Z,12.30
2017-08-06T02:20:07.590Z,12.30
2017-08-06T02:22:35.170Z,12.30
2017-08-06T02:25:03.909Z,12.20
2017-08-06T02:27:31.472Z,12.20
2017-08-06T02:29:59.043Z,12.10
2017-08-06T02:32:26.683Z,12.10
2017-08-06T02:34:54.246Z,12.00
2017-08-06T02:37:22.121Z,12.00
2017-08-06T02:39:49.691Z,12.00
2017-08-06T02:42:17.266Z,11.90
2017-08-06T02:44:44.863Z,11.90
2017-08-06T02:47:12.489Z,11.90
2017-08-06T02:49:40.347Z,11.80
2017-08-06T02:52:07.958Z,11.80
2017-08-06T02:54:35.519Z,11.70
2017-08-06T02:57:03.103Z,11.70
2017-08-06T02:59:30.684Z,11.70
2017-08-06T03:01:58.533Z,11.80
2017-08-06T03:04:26.168Z,11.80
2017-08-06T03:06:53.746Z,11.70
2017-08-06T03:09:21.355Z,11.70
2017-08-06T03:11:49.687Z,11.50
2017-08-06T03:14:17.551Z,11.50
2017-08-06T03:16:45.127Z,11.50
2017-08-06T03:19:12.707Z,11.40
2017-08-06T03:21:41.097Z,11.40
2017-08-06T03:24:09.432Z,11.40
2017-08-06T03:26:37.336Z,11.40
2017-08-06T03:29:05.852Z,11.40
2017-08-06T03:31:33.443Z,11.30
2017-08-06T03:34:01.060Z,11.30
2017-08-06T03:36:28.640Z,11.30
2017-08-06T03:38:56.226Z,11.30
2017-08-06T03:41:23.819Z,11.30
2017-08-06T03:43:51.446Z,11.30
2017-08-06T03:46:19.070Z,11.40
2017-08-06T03:48:46.659Z,11.40
2017-08-06T03:51:14.291Z,11.40
2017-08-06T03:53:41.865Z,11.40
2017-08-06T03:56:09.453Z,11.40
2017-08-06T03:58:37.060Z,11.40
2017-08-06T04:01:04.647Z,11.40
2017-08-06T04:03:32.263Z,11.30
2017-08-06T04:06:00.606Z,11.20
2017-08-06T04:08:28.231Z,11.20
2017-08-06T04:10:55.832Z,11.20
2017-08-06T04:13:23.403Z,11.20
2017-08-06T04:15:50.998Z,11.20
2017-08-06T04:18:18.577Z,11.20
2017-08-06T04:20:46.151Z,11.20
2017-08-06T04:23:13.742Z,11.20
2017-08-06T04:25:42.129Z,11.30
2017-08-06T04:28:10.545Z,11.30
2017-08-06T04:30:38.130Z,11.30
2017-08-06T04:33:05.715Z,11.30
2017-08-06T04:35:33.327Z,11.30
2017-08-06T04:38:00.923Z,11.30
2017-08-06T04:40:28.516Z,11.30
2017-08-06T04:42:56.867Z,11.30
2017-08-06T04:45:24.412Z,11.30
2017-08-06T04:47:52.020Z,11.20
2017-08-06T04:50:19.628Z,11.30
2017-08-06T04:52:47.223Z,11.30
2017-08-06T04:55:15.579Z,11.40
2017-08-06T04:57:43.452Z,11.40
2017-08-06T05:00:11.046Z,11.40
2017-08-06T05:02:38.644Z,11.50
2017-08-06T05:05:06.240Z,11.60
2017-08-06T05:07:34.578Z,11.70
2017-08-06T05:10:02.315Z,11.70
2017-08-06T05:12:29.887Z,11.90
2017-08-06T05:14:57.755Z,12.10
2017-08-06T05:17:25.319Z,12.40
2017-08-06T05:19:52.898Z,12.70
2017-08-06T05:22:20.496Z,12.90
2017-08-06T05:24:48.811Z,13.50
2017-08-06T05:27:16.428Z,13.50
2017-08-06T05:29:44.776Z,14.20
2017-08-06T05:32:12.624Z,14.20
2017-08-06T05:34:40.199Z,15.10
2017-08-06T05:37:07.762Z,16.80
2017-08-06T05:39:35.354Z,18.40
2017-08-06T05:42:02.938Z,19.90
2017-08-06T05:44:30.525Z,20.60
2017-08-06T05:46:58.100Z,22.40
2017-08-06T05:49:26.059Z,23.70
2017-08-06T05:51:53.681Z,24.80
2017-08-06T05:54:21.254Z,25.80
2017-08-06T05:56:48.844Z,26.40
2017-08-06T05:59:16.430Z,26.10
2017-08-06T06:01:44.853Z,26.50
2017-08-06T06:04:12.454Z,26.40
2017-08-06T06:06:40.304Z,26.40
2017-08-06T06:09:07.863Z,27.10
2017-08-06T06:11:35.455Z,27.00
2017-08-06T06:14:03.051Z,27.30
2017-08-06T06:16:30.631Z,28.70
2017-08-06T06:18:58.227Z,29.40
2017-08-06T06:21:25.907Z,31.10
2017-08-06T06:23:54.568Z,30.70
2017-08-06T06:26:22.139Z,30.60
2017-08-06T06:28:50.474Z,31.40
2017-08-06T06:31:18.067Z,31.40
2017-08-06T06:33:45.954Z,31.70
2017-08-06T06:36:14.322Z,32.90
2017-08-06T06:38:41.949Z,32.90
2017-08-06T06:41:09.824Z,33.00
2017-08-06T06:43:37.416Z,33.10
2017-08-06T06:46:05.024Z,32.90
2017-08-06T06:48:32.639Z,33.30
2017-08-06T06:51:00.208Z,33.90
2017-08-06T06:53:27.818Z,34.20
2017-08-06T06:55:55.416Z,33.90
2017-08-06T06:58:24.058Z,34.90
2017-08-06T07:00:51.640Z,34.80
2017-08-06T07:03:19.194Z,35.50
2017-08-06T07:05:46.808Z,35.80
2017-08-06T07:08:14.402Z,35.70
2017-08-06T07:10:42.038Z,35.50
2017-08-06T07:13:09.606Z,35.80
2017-08-06T07:15:37.334Z,35.70
2017-08-06T07:18:05.018Z,36.10
2017-08-06T07:20:32.923Z,36.20
2017-08-06T07:23:00.463Z,36.40
2017-08-06T07:25:28.062Z,35.80
2017-08-06T07:27:56.441Z,35.40
2017-08-06T07:30:24.017Z,35.40
2017-08-06T07:32:51.644Z,35.90
2017-08-06T07:35:19.226Z,36.70
2017-08-06T07:37:46.888Z,36.80
2017-08-06T07:40:15.281Z,36.60
2017-08-06T07:42:42.885Z,36.50
2017-08-06T07:45:10.470Z,37.60
2017-08-06T07:47:38.418Z,36.80
2017-08-06T07:50:05.985Z,36.90
2017-08-06T07:52:33.553Z,37.60
2017-08-06T07:55:01.169Z,37.90
2017-08-06T07:57:28.774Z,39.20
2017-08-06T07:59:56.376Z,39.00
2017-08-06T08:02:23.964Z,38.20
2017-08-06T08:04:51.574Z,39.80
2017-08-06T08:07:19.947Z,40.10
2017-08-06T08:09:48.652Z,40.00
2017-08-06T08:12:16.224Z,39.90
2017-08-06T08:14:43.806Z,39.20
2017-08-06T08:17:11.409Z,40.20
2017-08-06T08:19:39.799Z,39.30
2017-08-06T08:22:08.155Z,39.30
2017-08-06T08:24:35.734Z,39.30
2017-08-06T08:27:03.352Z,40.70
2017-08-06T08:29:30.947Z,41.40
2017-08-06T08:31:59.341Z,41.10
2017-08-06T08:34:27.028Z,41.10
2017-08-06T08:36:54.594Z,40.10
2017-08-06T08:39:22.220Z,40.50
2017-08-06T08:41:50.188Z,41.20
2017-08-06T08:44:17.911Z,41.20
2017-08-06T08:46:45.509Z,41.70
2017-08-06T08:49:13.897Z,41.20
2017-08-06T08:51:41.522Z,41.20
2017-08-06T08:54:09.132Z,41.70
2017-08-06T08:56:36.723Z,41.20
2017-08-06T08:59:04.585Z,40.50
2017-08-06T09:01:32.173Z,39.50
2017-08-06T09:03:59.746Z,39.20
2017-08-06T09:06:28.124Z,41.50
2017-08-06T09:08:55.696Z,41.50
2017-08-06T09:11:23.617Z,41.40
2017-08-06T09:13:51.198Z,41.60
2017-08-06T09:16:18.782Z,41.50
2017-08-06T09:18:46.385Z,41.10
2017-08-06T09:21:14.030Z,41.00
2017-08-06T09:23:41.922Z,40.70
2017-08-06T09:26:09.489Z,41.10
2017-08-06T09:28:37.076Z,40.70
2017-08-06T09:31:05.704Z,41.10
2017-08-06T09:33:33.259Z,41.10
2017-08-06T09:36:01.155Z,42.10
2017-08-06T09:38:28.760Z,41.40
2017-08-06T09:40:56.332Z,41.60
2017-08-06T09:43:23.944Z,41.40
2017-08-06T09:45:51.510Z,42.40
2017-08-06T09:48:19.108Z,42.10
2017-08-06T09:50:46.680Z,41.90
2017-08-06T09:53:14.588Z,41.60
2017-08-06T09:55:42.199Z,40.80
2017-08-06T09:58:09.777Z,41.30
2017-08-06T10:00:37.385Z,41.70
2017-08-06T10:03:05.732Z,42.30
2017-08-06T10:05:33.318Z,42.40
2017-08-06T10:08:00.859Z,42.90
2017-08-06T10:10:28.718Z,42.70
2017-08-06T10:12:56.250Z,42.80
2017-08-06T10:15:23.835Z,42.40
